sensor_id;sensor_type;location;lat;lon;timestamp;P1;durP1;ratioP1;P2;durP2;ratioP2
6667;SDS011;3370;47.712;9.082;2023-05-08T00:01:57;1.20;;;1.10;;
6667;SDS011;3370;47.712;9.082;2023-05-08T00:04:23;1.20;;;1.10;;
6667;SDS011;3370;47.712;9.082;2023-05-08T00:06:49;3.70;;;1.20;;
6667;SDS011;3370;47.712;9.082;2023-05-08T00:09:17;1.13;;;1.13;;
6667;SDS011;3370;47.712;9.082;2023-05-08T00:11:44;1.43;;;1.43;;
6667;SDS011;3370;47.712;9.082;2023-05-08T00:14:09;1.70;;;1.60;;
6667;SDS011;3370;47.712;9.082;2023-05-08T00:16:35;1.40;;;1.40;;
6667;SDS011;3370;47.712;9.082;2023-05-08T00:19:01;1.93;;;1.40;;
6667;SDS011;3370;47.712;9.082;2023-05-08T00:21:27;1.27;;;1.23;;
6667;SDS011;3370;47.712;9.082;2023-05-08T00:23:53;1.50;;;1.40;;
6667;SDS011;3370;47.712;9.082;2023-05-08T00:26:19;1.65;;;1.55;;
6667;SDS011;3370;47.712;9.082;2023-05-08T00:28:45;1.30;;;1.30;;
6667;SDS011;3370;47.712;9.082;2023-05-08T00:31:12;1.50;;;1.40;;
6667;SDS011;3370;47.712;9.082;2023-05-08T00:33:38;1.60;;;1.50;;
6667;SDS011;3370;47.712;9.082;2023-05-08T00:36:04;1.60;;;1.50;;
6667;SDS011;3370;47.712;9.082;2023-05-08T00:38:34;1.40;;;1.30;;
6667;SDS011;3370;47.712;9.082;2023-05-08T00:41:01;1.50;;;1.40;;
6667;SDS011;3370;47.712;9.082;2023-05-08T00:43:27;1.57;;;1.47;;
6667;SDS011;3370;47.712;9.082;2023-05-08T00:45:57;1.30;;;1.30;;
6667;SDS011;3370;47.712;9.082;2023-05-08T00:48:27;1.67;;;1.57;;
6667;SDS011;3370;47.712;9.082;2023-05-08T00:50:58;1.77;;;1.67;;
6667;SDS011;3370;47.712;9.082;2023-05-08T00:53:27;1.93;;;1.83;;
6667;SDS011;3370;47.712;9.082;2023-05-08T00:55:56;1.27;;;1.27;;
6667;SDS011;3370;47.712;9.082;2023-05-08T00:58:23;2.30;;;1.63;;
6667;SDS011;3370;47.712;9.082;2023-05-08T01:00:51;1.97;;;1.87;;
6667;SDS011;3370;47.712;9.082;2023-05-08T01:03:19;1.83;;;1.50;;
6667;SDS011;3370;47.712;9.082;2023-05-08T01:05:47;2.50;;;1.30;;
6667;SDS011;3370;47.712;9.082;2023-05-08T01:08:13;1.63;;;1.63;;
6667;SDS011;3370;47.712;9.082;2023-05-08T01:13:56;2.40;;;1.70;;
6667;SDS011;3370;47.712;9.082;2023-05-08T01:16:44;4.03;;;1.50;;
6667;SDS011;3370;47.712;9.082;2023-05-08T01:19:49;4.70;;;1.73;;
6667;SDS011;3370;47.712;9.082;2023-05-08T01:22:49;3.80;;;1.80;;
6667;SDS011;3370;47.712;9.082;2023-05-08T01:34:12;1.57;;;1.57;;
6667;SDS011;3370;47.712;9.082;2023-05-08T01:36:59;2.10;;;1.93;;
6667;SDS011;3370;47.712;9.082;2023-05-08T01:39:42;1.80;;;1.70;;
6667;SDS011;3370;47.712;9.082;2023-05-08T01:42:44;1.70;;;1.70;;
6667;SDS011;3370;47.712;9.082;2023-05-08T01:45:25;2.03;;;1.93;;
6667;SDS011;3370;47.712;9.082;2023-05-08T01:48:02;2.10;;;1.90;;
6667;SDS011;3370;47.712;9.082;2023-05-08T01:50:34;1.93;;;1.60;;
6667;SDS011;3370;47.712;9.082;2023-05-08T01:53:16;2.13;;;2.03;;
6667;SDS011;3370;47.712;9.082;2023-05-08T01:55:49;4.03;;;1.80;;
6667;SDS011;3370;47.712;9.082;2023-05-08T01:58:21;2.30;;;2.10;;
6667;SDS011;3370;47.712;9.082;2023-05-08T02:00:50;2.00;;;1.90;;
6667;SDS011;3370;47.712;9.082;2023-05-08T02:03:16;3.53;;;3.23;;
6667;SDS011;3370;47.712;9.082;2023-05-08T02:05:44;2.03;;;1.93;;
6667;SDS011;3370;47.712;9.082;2023-05-08T02:08:15;3.07;;;2.00;;
6667;SDS011;3370;47.712;9.082;2023-05-08T02:10:43;1.97;;;1.87;;
6667;SDS011;3370;47.712;9.082;2023-05-08T02:13:12;2.60;;;1.90;;
6667;SDS011;3370;47.712;9.082;2023-05-08T02:15:43;2.17;;;2.07;;
6667;SDS011;3370;47.712;9.082;2023-05-08T02:18:14;3.73;;;2.17;;
6667;SDS011;3370;47.712;9.082;2023-05-08T02:20:42;2.00;;;1.90;;
6667;SDS011;3370;47.712;9.082;2023-05-08T02:23:08;1.87;;;1.83;;
6667;SDS011;3370;47.712;9.082;2023-05-08T02:25:36;2.63;;;1.70;;
6667;SDS011;3370;47.712;9.082;2023-05-08T02:28:03;2.00;;;1.90;;
6667;SDS011;3370;47.712;9.082;2023-05-08T02:30:31;2.00;;;1.90;;
6667;SDS011;3370;47.712;9.082;2023-05-08T02:32:58;2.00;;;1.90;;
6667;SDS011;3370;47.712;9.082;2023-05-08T02:35:26;2.33;;;1.87;;
6667;SDS011;3370;47.712;9.082;2023-05-08T02:37:55;2.33;;;1.83;;
6667;SDS011;3370;47.712;9.082;2023-05-08T02:40:23;3.03;;;1.47;;
6667;SDS011;3370;47.712;9.082;2023-05-08T02:42:53;2.00;;;1.90;;
6667;SDS011;3370;47.712;9.082;2023-05-08T02:45:19;1.97;;;1.87;;
6667;SDS011;3370;47.712;9.082;2023-05-08T02:47:57;2.17;;;1.73;;
6667;SDS011;3370;47.712;9.082;2023-05-08T02:50:36;1.63;;;1.53;;
6667;SDS011;3370;47.712;9.082;2023-05-08T02:53:25;1.90;;;1.80;;
6667;SDS011;3370;47.712;9.082;2023-05-08T02:56:15;1.50;;;1.43;;
6667;SDS011;3370;47.712;9.082;2023-05-08T02:58:56;1.60;;;1.60;;
6667;SDS011;3370;47.712;9.082;2023-05-08T03:01:48;2.63;;;1.50;;
6667;SDS011;3370;47.712;9.082;2023-05-08T03:04:30;1.90;;;1.80;;
6667;SDS011;3370;47.712;9.082;2023-05-08T03:07:00;1.60;;;1.50;;
6667;SDS011;3370;47.712;9.082;2023-05-08T03:09:31;1.83;;;1.73;;
6667;SDS011;3370;47.712;9.082;2023-05-08T03:12:08;1.50;;;1.40;;
6667;SDS011;3370;47.712;9.082;2023-05-08T03:14:43;1.87;;;1.77;;
6667;SDS011;3370;47.712;9.082;2023-05-08T03:17:19;1.43;;;1.43;;
6667;SDS011;3370;47.712;9.082;2023-05-08T03:19:48;2.20;;;1.80;;
6667;SDS011;3370;47.712;9.082;2023-05-08T03:22:19;1.47;;;1.47;;
6667;SDS011;3370;47.712;9.082;2023-05-08T03:24:46;1.60;;;1.60;;
6667;SDS011;3370;47.712;9.082;2023-05-08T03:27:14;2.53;;;1.60;;
6667;SDS011;3370;47.712;9.082;2023-05-08T03:29:41;2.20;;;2.00;;
6667;SDS011;3370;47.712;9.082;2023-05-08T03:32:09;1.90;;;1.70;;
6667;SDS011;3370;47.712;9.082;2023-05-08T03:34:37;3.10;;;2.20;;
6667;SDS011;3370;47.712;9.082;2023-05-08T03:37:04;2.00;;;1.90;;
6667;SDS011;3370;47.712;9.082;2023-05-08T03:39:30;2.30;;;1.80;;
6667;SDS011;3370;47.712;9.082;2023-05-08T03:41:56;2.20;;;2.10;;
6667;SDS011;3370;47.712;9.082;2023-05-08T03:44:22;4.03;;;2.70;;
6667;SDS011;3370;47.712;9.082;2023-05-08T03:46:49;2.30;;;2.20;;
6667;SDS011;3370;47.712;9.082;2023-05-08T03:49:19;1.87;;;1.87;;
6667;SDS011;3370;47.712;9.082;2023-05-08T03:51:50;2.37;;;2.10;;
6667;SDS011;3370;47.712;9.082;2023-05-08T03:54:20;2.17;;;2.00;;
6667;SDS011;3370;47.712;9.082;2023-05-08T03:56:49;3.50;;;2.40;;
6667;SDS011;3370;47.712;9.082;2023-05-08T04:02:35;1.93;;;1.83;;
6667;SDS011;3370;47.712;9.082;2023-05-08T04:05:19;2.37;;;2.27;;
6667;SDS011;3370;47.712;9.082;2023-05-08T04:08:26;2.03;;;1.93;;
6667;SDS011;3370;47.712;9.082;2023-05-08T04:11:03;2.13;;;2.03;;
6667;SDS011;3370;47.712;9.082;2023-05-08T04:13:38;1.90;;;1.90;;
6667;SDS011;3370;47.712;9.082;2023-05-08T04:16:16;2.40;;;2.20;;
6667;SDS011;3370;47.712;9.082;2023-05-08T04:18:49;2.20;;;2.10;;
6667;SDS011;3370;47.712;9.082;2023-05-08T04:21:22;3.13;;;2.10;;
6667;SDS011;3370;47.712;9.082;2023-05-08T04:23:50;2.43;;;2.33;;
6667;SDS011;3370;47.712;9.082;2023-05-08T04:26:18;2.63;;;2.40;;
6667;SDS011;3370;47.712;9.082;2023-05-08T04:28:44;2.60;;;2.40;;
6667;SDS011;3370;47.712;9.082;2023-05-08T04:31:12;2.60;;;2.40;;
6667;SDS011;3370;47.712;9.082;2023-05-08T04:33:44;4.03;;;2.70;;
6667;SDS011;3370;47.712;9.082;2023-05-08T04:36:11;2.17;;;2.07;;
6667;SDS011;3370;47.712;9.082;2023-05-08T04:38:38;2.40;;;2.30;;
6667;SDS011;3370;47.712;9.082;2023-05-08T04:41:07;2.87;;;2.67;;
6667;SDS011;3370;47.712;9.082;2023-05-08T04:43:33;3.90;;;2.83;;
6667;SDS011;3370;47.712;9.082;2023-05-08T04:46:00;2.97;;;2.77;;
6667;SDS011;3370;47.712;9.082;2023-05-08T04:48:27;2.90;;;2.70;;
6667;SDS011;3370;47.712;9.082;2023-05-08T04:50:55;3.63;;;3.33;;
6667;SDS011;3370;47.712;9.082;2023-05-08T04:53:21;2.83;;;2.63;;
6667;SDS011;3370;47.712;9.082;2023-05-08T04:55:47;3.87;;;3.30;;
6667;SDS011;3370;47.712;9.082;2023-05-08T04:58:12;3.70;;;2.93;;
6667;SDS011;3370;47.712;9.082;2023-05-08T05:00:38;3.00;;;2.90;;
6667;SDS011;3370;47.712;9.082;2023-05-08T05:03:04;3.10;;;2.90;;
6667;SDS011;3370;47.712;9.082;2023-05-08T05:05:30;3.97;;;3.67;;
6667;SDS011;3370;47.712;9.082;2023-05-08T05:07:55;3.03;;;2.90;;
6667;SDS011;3370;47.712;9.082;2023-05-08T05:10:21;3.43;;;3.20;;
6667;SDS011;3370;47.712;9.082;2023-05-08T05:12:47;3.67;;;3.17;;
6667;SDS011;3370;47.712;9.082;2023-05-08T05:15:13;3.80;;;3.20;;
6667;SDS011;3370;47.712;9.082;2023-05-08T05:17:38;3.80;;;3.50;;
6667;SDS011;3370;47.712;9.082;2023-05-08T05:20:04;3.97;;;3.33;;
6667;SDS011;3370;47.712;9.082;2023-05-08T05:22:32;3.57;;;3.27;;
6667;SDS011;3370;47.712;9.082;2023-05-08T05:24:58;3.60;;;3.30;;
6667;SDS011;3370;47.712;9.082;2023-05-08T05:27:24;7.40;;;3.30;;
6667;SDS011;3370;47.712;9.082;2023-05-08T05:29:50;4.37;;;3.97;;
6667;SDS011;3370;47.712;9.082;2023-05-08T05:32:16;4.43;;;3.70;;
6667;SDS011;3370;47.712;9.082;2023-05-08T05:34:41;4.30;;;4.00;;
6667;SDS011;3370;47.712;9.082;2023-05-08T05:37:07;4.27;;;3.60;;
6667;SDS011;3370;47.712;9.082;2023-05-08T05:39:33;5.13;;;3.80;;
6667;SDS011;3370;47.712;9.082;2023-05-08T05:42:00;4.33;;;3.93;;
6667;SDS011;3370;47.712;9.082;2023-05-08T05:44:25;8.17;;;3.87;;
6667;SDS011;3370;47.712;9.082;2023-05-08T05:46:51;6.13;;;4.20;;
6667;SDS011;3370;47.712;9.082;2023-05-08T05:49:18;4.83;;;4.20;;
6667;SDS011;3370;47.712;9.082;2023-05-08T05:51:44;3.80;;;3.50;;
6667;SDS011;3370;47.712;9.082;2023-05-08T05:54:10;4.40;;;4.00;;
6667;SDS011;3370;47.712;9.082;2023-05-08T05:56:35;5.00;;;4.50;;
6667;SDS011;3370;47.712;9.082;2023-05-08T05:59:01;3.67;;;3.47;;
6667;SDS011;3370;47.712;9.082;2023-05-08T06:01:27;4.20;;;3.73;;
6667;SDS011;3370;47.712;9.082;2023-05-08T06:03:53;9.40;;;4.13;;
6667;SDS011;3370;47.712;9.082;2023-05-08T06:06:19;4.43;;;3.97;;
6667;SDS011;3370;47.712;9.082;2023-05-08T06:08:46;4.37;;;3.87;;
6667;SDS011;3370;47.712;9.082;2023-05-08T06:11:12;4.07;;;3.73;;
6667;SDS011;3370;47.712;9.082;2023-05-08T06:13:41;4.20;;;3.63;;
6667;SDS011;3370;47.712;9.082;2023-05-08T06:16:07;7.40;;;4.40;;
6667;SDS011;3370;47.712;9.082;2023-05-08T06:18:33;4.00;;;3.70;;
6667;SDS011;3370;47.712;9.082;2023-05-08T06:20:59;4.37;;;3.97;;
6667;SDS011;3370;47.712;9.082;2023-05-08T06:23:25;5.50;;;4.17;;
6667;SDS011;3370;47.712;9.082;2023-05-08T06:25:51;7.80;;;3.90;;
6667;SDS011;3370;47.712;9.082;2023-05-08T06:28:18;4.27;;;3.97;;
6667;SDS011;3370;47.712;9.082;2023-05-08T06:30:44;4.80;;;4.30;;
6667;SDS011;3370;47.712;9.082;2023-05-08T06:33:09;8.93;;;4.30;;
6667;SDS011;3370;47.712;9.082;2023-05-08T06:35:35;5.40;;;4.47;;
6667;SDS011;3370;47.712;9.082;2023-05-08T06:38:01;9.70;;;5.13;;
6667;SDS011;3370;47.712;9.082;2023-05-08T06:40:27;4.30;;;3.90;;
6667;SDS011;3370;47.712;9.082;2023-05-08T06:42:53;6.83;;;4.87;;
6667;SDS011;3370;47.712;9.082;2023-05-08T06:45:18;4.30;;;4.00;;
6667;SDS011;3370;47.712;9.082;2023-05-08T06:47:44;6.47;;;5.57;;
6667;SDS011;3370;47.712;9.082;2023-05-08T06:50:10;6.07;;;5.20;;
6667;SDS011;3370;47.712;9.082;2023-05-08T06:52:36;5.83;;;4.70;;
6667;SDS011;3370;47.712;9.082;2023-05-08T06:55:02;9.50;;;4.50;;
6667;SDS011;3370;47.712;9.082;2023-05-08T06:57:28;5.50;;;5.00;;
6667;SDS011;3370;47.712;9.082;2023-05-08T06:59:54;4.50;;;4.10;;
6667;SDS011;3370;47.712;9.082;2023-05-08T07:02:20;4.93;;;4.53;;
6667;SDS011;3370;47.712;9.082;2023-05-08T07:04:46;6.93;;;5.27;;
6667;SDS011;3370;47.712;9.082;2023-05-08T07:07:12;5.60;;;4.83;;
6667;SDS011;3370;47.712;9.082;2023-05-08T07:09:39;6.53;;;4.50;;
6667;SDS011;3370;47.712;9.082;2023-05-08T07:12:05;4.67;;;3.97;;
6667;SDS011;3370;47.712;9.082;2023-05-08T07:14:32;5.00;;;4.60;;
6667;SDS011;3370;47.712;9.082;2023-05-08T07:17:01;4.50;;;4.10;;
6667;SDS011;3370;47.712;9.082;2023-05-08T07:19:31;5.17;;;4.50;;
6667;SDS011;3370;47.712;9.082;2023-05-08T07:21:59;4.27;;;3.93;;
6667;SDS011;3370;47.712;9.082;2023-05-08T07:24:25;5.03;;;4.23;;
6667;SDS011;3370;47.712;9.082;2023-05-08T07:26:50;5.17;;;4.63;;
6667;SDS011;3370;47.712;9.082;2023-05-08T07:29:16;5.57;;;3.53;;
6667;SDS011;3370;47.712;9.082;2023-05-08T07:31:42;6.93;;;3.77;;
6667;SDS011;3370;47.712;9.082;2023-05-08T07:34:10;5.10;;;4.00;;
6667;SDS011;3370;47.712;9.082;2023-05-08T07:36:35;5.37;;;3.83;;
6667;SDS011;3370;47.712;9.082;2023-05-08T07:39:01;3.87;;;3.47;;
6667;SDS011;3370;47.712;9.082;2023-05-08T07:41:28;4.23;;;3.93;;
6667;SDS011;3370;47.712;9.082;2023-05-08T07:43:54;4.00;;;3.70;;
6667;SDS011;3370;47.712;9.082;2023-05-08T07:46:19;5.67;;;3.87;;
6667;SDS011;3370;47.712;9.082;2023-05-08T07:48:46;4.30;;;3.90;;
6667;SDS011;3370;47.712;9.082;2023-05-08T07:51:13;5.30;;;4.20;;
6667;SDS011;3370;47.712;9.082;2023-05-08T07:53:39;4.97;;;3.60;;
6667;SDS011;3370;47.712;9.082;2023-05-08T07:56:05;4.80;;;3.73;;
6667;SDS011;3370;47.712;9.082;2023-05-08T07:58:31;3.47;;;3.17;;
6667;SDS011;3370;47.712;9.082;2023-05-08T08:00:57;3.27;;;3.00;;
6667;SDS011;3370;47.712;9.082;2023-05-08T08:03:22;3.50;;;3.30;;
6667;SDS011;3370;47.712;9.082;2023-05-08T08:05:48;4.43;;;3.23;;
6667;SDS011;3370;47.712;9.082;2023-05-08T08:08:14;5.50;;;2.90;;
6667;SDS011;3370;47.712;9.082;2023-05-08T08:10:40;3.00;;;2.80;;
6667;SDS011;3370;47.712;9.082;2023-05-08T08:13:06;7.63;;;3.10;;
6667;SDS011;3370;47.712;9.082;2023-05-08T08:15:31;4.23;;;3.90;;
6667;SDS011;3370;47.712;9.082;2023-05-08T08:17:57;5.30;;;3.20;;
6667;SDS011;3370;47.712;9.082;2023-05-08T08:20:23;3.77;;;3.47;;
6667;SDS011;3370;47.712;9.082;2023-05-08T08:22:49;3.90;;;3.60;;
6667;SDS011;3370;47.712;9.082;2023-05-08T08:25:14;3.63;;;3.30;;
6667;SDS011;3370;47.712;9.082;2023-05-08T08:27:40;2.90;;;2.80;;
6667;SDS011;3370;47.712;9.082;2023-05-08T08:30:06;3.70;;;3.40;;
6667;SDS011;3370;47.712;9.082;2023-05-08T08:32:32;4.17;;;3.10;;
6667;SDS011;3370;47.712;9.082;2023-05-08T08:34:58;3.33;;;3.03;;
6667;SDS011;3370;47.712;9.082;2023-05-08T08:37:24;4.57;;;2.80;;
6667;SDS011;3370;47.712;9.082;2023-05-08T08:39:50;4.30;;;3.10;;
6667;SDS011;3370;47.712;9.082;2023-05-08T08:42:16;3.60;;;3.30;;
6667;SDS011;3370;47.712;9.082;2023-05-08T08:44:42;4.00;;;3.70;;
6667;SDS011;3370;47.712;9.082;2023-05-08T08:47:09;3.60;;;3.40;;
6667;SDS011;3370;47.712;9.082;2023-05-08T08:49:41;4.30;;;3.90;;
6667;SDS011;3370;47.712;9.082;2023-05-08T08:52:25;4.10;;;3.80;;
6667;SDS011;3370;47.712;9.082;2023-05-08T08:55:01;9.43;;;4.10;;
6667;SDS011;3370;47.712;9.082;2023-05-08T08:57:32;3.87;;;3.67;;
6667;SDS011;3370;47.712;9.082;2023-05-08T09:00:01;4.20;;;3.90;;
6667;SDS011;3370;47.712;9.082;2023-05-08T09:02:29;4.47;;;4.17;;
6667;SDS011;3370;47.712;9.082;2023-05-08T09:04:56;5.27;;;3.67;;
6667;SDS011;3370;47.712;9.082;2023-05-08T09:07:23;3.33;;;3.13;;
6667;SDS011;3370;47.712;9.082;2023-05-08T09:09:49;3.10;;;3.00;;
6667;SDS011;3370;47.712;9.082;2023-05-08T09:12:15;3.30;;;3.10;;
6667;SDS011;3370;47.712;9.082;2023-05-08T09:14:41;3.33;;;3.10;;
6667;SDS011;3370;47.712;9.082;2023-05-08T09:17:07;5.70;;;4.40;;
6667;SDS011;3370;47.712;9.082;2023-05-08T09:19:34;4.13;;;3.80;;
6667;SDS011;3370;47.712;9.082;2023-05-08T09:22:00;3.73;;;3.43;;
6667;SDS011;3370;47.712;9.082;2023-05-08T09:27:26;5.70;;;3.57;;
6667;SDS011;3370;47.712;9.082;2023-05-08T09:29:58;3.80;;;3.50;;
6667;SDS011;3370;47.712;9.082;2023-05-08T09:32:28;3.73;;;3.40;;
6667;SDS011;3370;47.712;9.082;2023-05-08T09:34:55;4.40;;;4.00;;
6667;SDS011;3370;47.712;9.082;2023-05-08T09:37:21;6.30;;;3.07;;
6667;SDS011;3370;47.712;9.082;2023-05-08T09:39:47;7.70;;;3.70;;
6667;SDS011;3370;47.712;9.082;2023-05-08T09:42:14;3.83;;;3.53;;
6667;SDS011;3370;47.712;9.082;2023-05-08T09:44:43;3.97;;;3.10;;
6667;SDS011;3370;47.712;9.082;2023-05-08T09:47:14;2.97;;;2.77;;
6667;SDS011;3370;47.712;9.082;2023-05-08T09:50:02;3.50;;;3.30;;
6667;SDS011;3370;47.712;9.082;2023-05-08T09:52:30;2.93;;;2.73;;
6667;SDS011;3370;47.712;9.082;2023-05-08T09:55:04;4.27;;;3.97;;
6667;SDS011;3370;47.712;9.082;2023-05-08T09:57:34;3.10;;;3.00;;
6667;SDS011;3370;47.712;9.082;2023-05-08T10:02:37;3.03;;;2.70;;
6667;SDS011;3370;47.712;9.082;2023-05-08T10:05:24;3.43;;;3.17;;
6667;SDS011;3370;47.712;9.082;2023-05-08T10:07:58;3.30;;;3.10;;
6667;SDS011;3370;47.712;9.082;2023-05-08T10:10:45;2.80;;;2.60;;
6667;SDS011;3370;47.712;9.082;2023-05-08T10:13:11;3.27;;;2.70;;
6667;SDS011;3370;47.712;9.082;2023-05-08T10:15:39;3.10;;;2.90;;
6667;SDS011;3370;47.712;9.082;2023-05-08T10:18:07;3.07;;;2.30;;
6667;SDS011;3370;47.712;9.082;2023-05-08T10:20:40;2.77;;;2.57;;
6667;SDS011;3370;47.712;9.082;2023-05-08T10:23:09;2.80;;;2.60;;
6667;SDS011;3370;47.712;9.082;2023-05-08T10:25:43;3.07;;;2.87;;
6667;SDS011;3370;47.712;9.082;2023-05-08T10:28:20;2.60;;;2.50;;
6667;SDS011;3370;47.712;9.082;2023-05-08T10:31:00;2.97;;;2.77;;
6667;SDS011;3370;47.712;9.082;2023-05-08T10:33:29;2.67;;;2.47;;
6667;SDS011;3370;47.712;9.082;2023-05-08T10:35:58;4.40;;;2.93;;
6667;SDS011;3370;47.712;9.082;2023-05-08T10:38:24;4.30;;;3.03;;
6667;SDS011;3370;47.712;9.082;2023-05-08T10:40:52;3.10;;;2.90;;
6667;SDS011;3370;47.712;9.082;2023-05-08T10:43:23;3.00;;;2.80;;
6667;SDS011;3370;47.712;9.082;2023-05-08T10:45:50;2.77;;;2.50;;
6667;SDS011;3370;47.712;9.082;2023-05-08T10:51:15;2.83;;;2.63;;
6667;SDS011;3370;47.712;9.082;2023-05-08T10:54:05;2.87;;;2.50;;
6667;SDS011;3370;47.712;9.082;2023-05-08T10:56:43;3.13;;;2.87;;
6667;SDS011;3370;47.712;9.082;2023-05-08T10:59:16;3.30;;;2.50;;
6667;SDS011;3370;47.712;9.082;2023-05-08T11:01:48;2.83;;;2.47;;
6667;SDS011;3370;47.712;9.082;2023-05-08T11:04:23;2.33;;;2.23;;
6667;SDS011;3370;47.712;9.082;2023-05-08T11:06:52;3.93;;;2.40;;
6667;SDS011;3370;47.712;9.082;2023-05-08T11:09:19;4.77;;;2.60;;
6667;SDS011;3370;47.712;9.082;2023-05-08T11:12:06;2.60;;;2.37;;
6667;SDS011;3370;47.712;9.082;2023-05-08T11:14:52;2.37;;;2.27;;
6667;SDS011;3370;47.712;9.082;2023-05-08T11:17:31;2.20;;;2.10;;
6667;SDS011;3370;47.712;9.082;2023-05-08T11:20:02;2.50;;;2.33;;
6667;SDS011;3370;47.712;9.082;2023-05-08T11:22:30;2.30;;;2.20;;
6667;SDS011;3370;47.712;9.082;2023-05-08T11:25:02;2.20;;;2.10;;
6667;SDS011;3370;47.712;9.082;2023-05-08T11:27:36;2.60;;;2.40;;
6667;SDS011;3370;47.712;9.082;2023-05-08T11:30:24;2.33;;;2.13;;
6667;SDS011;3370;47.712;9.082;2023-05-08T11:46:34;3.13;;;2.23;;
6667;SDS011;3370;47.712;9.082;2023-05-08T11:49:24;5.53;;;1.80;;
6667;SDS011;3370;47.712;9.082;2023-05-08T11:51:52;1.93;;;1.83;;
6667;SDS011;3370;47.712;9.082;2023-05-08T11:54:20;3.37;;;1.97;;
6667;SDS011;3370;47.712;9.082;2023-05-08T11:56:47;2.90;;;2.03;;
6667;SDS011;3370;47.712;9.082;2023-05-08T11:59:14;2.07;;;1.97;;
6667;SDS011;3370;47.712;9.082;2023-05-08T12:01:41;3.93;;;2.37;;
6667;SDS011;3370;47.712;9.082;2023-05-08T12:04:08;2.10;;;2.00;;
6667;SDS011;3370;47.712;9.082;2023-05-08T12:06:36;2.00;;;1.90;;
6667;SDS011;3370;47.712;9.082;2023-05-08T12:09:16;1.90;;;1.80;;
6667;SDS011;3370;47.712;9.082;2023-05-08T12:11:44;2.13;;;1.93;;
6667;SDS011;3370;47.712;9.082;2023-05-08T12:14:15;2.30;;;2.20;;
6667;SDS011;3370;47.712;9.082;2023-05-08T12:16:42;2.00;;;1.90;;
6667;SDS011;3370;47.712;9.082;2023-05-08T12:19:08;5.20;;;2.17;;
6667;SDS011;3370;47.712;9.082;2023-05-08T12:21:35;2.00;;;1.90;;
6667;SDS011;3370;47.712;9.082;2023-05-08T12:24:05;2.53;;;2.30;;
6667;SDS011;3370;47.712;9.082;2023-05-08T12:26:35;4.00;;;2.23;;
6667;SDS011;3370;47.712;9.082;2023-05-08T12:29:05;2.00;;;1.90;;
6667;SDS011;3370;47.712;9.082;2023-05-08T12:31:33;2.30;;;2.17;;
6667;SDS011;3370;47.712;9.082;2023-05-08T12:34:02;2.53;;;2.30;;
6667;SDS011;3370;47.712;9.082;2023-05-08T12:36:33;2.00;;;1.90;;
6667;SDS011;3370;47.712;9.082;2023-05-08T12:41:59;10.03;;;2.47;;
6667;SDS011;3370;47.712;9.082;2023-05-08T12:44:25;3.10;;;2.00;;
6667;SDS011;3370;47.712;9.082;2023-05-08T12:46:52;1.73;;;1.63;;
6667;SDS011;3370;47.712;9.082;2023-05-08T12:49:26;1.80;;;1.70;;
6667;SDS011;3370;47.712;9.082;2023-05-08T12:52:03;2.20;;;2.07;;
6667;SDS011;3370;47.712;9.082;2023-05-08T12:54:34;2.40;;;2.20;;
6667;SDS011;3370;47.712;9.082;2023-05-08T12:57:07;3.60;;;2.33;;
6667;SDS011;3370;47.712;9.082;2023-05-08T12:59:38;4.20;;;1.83;;
6667;SDS011;3370;47.712;9.082;2023-05-08T13:02:10;2.17;;;2.00;;
6667;SDS011;3370;47.712;9.082;2023-05-08T13:04:42;2.70;;;2.50;;
6667;SDS011;3370;47.712;9.082;2023-05-08T13:07:08;2.43;;;2.23;;
6667;SDS011;3370;47.712;9.082;2023-05-08T13:09:34;3.70;;;2.30;;
6667;SDS011;3370;47.712;9.082;2023-05-08T13:12:00;3.80;;;2.43;;
6667;SDS011;3370;47.712;9.082;2023-05-08T13:14:26;2.87;;;2.67;;
6667;SDS011;3370;47.712;9.082;2023-05-08T13:16:52;4.33;;;2.57;;
6667;SDS011;3370;47.712;9.082;2023-05-08T13:19:17;2.73;;;2.17;;
6667;SDS011;3370;47.712;9.082;2023-05-08T13:21:43;3.47;;;2.73;;
6667;SDS011;3370;47.712;9.082;2023-05-08T13:24:13;3.83;;;2.60;;
6667;SDS011;3370;47.712;9.082;2023-05-08T13:26:39;3.53;;;2.70;;
6667;SDS011;3370;47.712;9.082;2023-05-08T13:29:05;6.90;;;2.43;;
6667;SDS011;3370;47.712;9.082;2023-05-08T13:31:31;6.93;;;2.83;;
6667;SDS011;3370;47.712;9.082;2023-05-08T13:33:56;2.57;;;2.37;;
6667;SDS011;3370;47.712;9.082;2023-05-08T13:36:22;2.37;;;2.17;;
6667;SDS011;3370;47.712;9.082;2023-05-08T13:38:48;3.80;;;3.00;;
6667;SDS011;3370;47.712;9.082;2023-05-08T13:41:18;2.47;;;2.27;;
6667;SDS011;3370;47.712;9.082;2023-05-08T13:43:43;2.63;;;2.40;;
6667;SDS011;3370;47.712;9.082;2023-05-08T13:46:10;3.97;;;3.00;;
6667;SDS011;3370;47.712;9.082;2023-05-08T13:48:36;6.33;;;2.70;;
6667;SDS011;3370;47.712;9.082;2023-05-08T13:51:02;3.13;;;2.77;;
6667;SDS011;3370;47.712;9.082;2023-05-08T13:53:28;4.27;;;3.13;;
6667;SDS011;3370;47.712;9.082;2023-05-08T13:55:53;5.00;;;3.13;;
6667;SDS011;3370;47.712;9.082;2023-05-08T13:58:20;3.90;;;3.60;;
6667;SDS011;3370;47.712;9.082;2023-05-08T14:00:46;3.80;;;3.30;;
6667;SDS011;3370;47.712;9.082;2023-05-08T14:03:12;4.50;;;3.73;;
6667;SDS011;3370;47.712;9.082;2023-05-08T14:05:38;4.87;;;4.17;;
6667;SDS011;3370;47.712;9.082;2023-05-08T14:08:03;4.80;;;4.00;;
6667;SDS011;3370;47.712;9.082;2023-05-08T14:10:29;6.47;;;3.73;;
6667;SDS011;3370;47.712;9.082;2023-05-08T14:12:55;4.37;;;3.93;;
6667;SDS011;3370;47.712;9.082;2023-05-08T14:15:20;8.23;;;4.87;;
6667;SDS011;3370;47.712;9.082;2023-05-08T14:17:46;4.97;;;4.23;;
6667;SDS011;3370;47.712;9.082;2023-05-08T14:20:12;4.63;;;4.27;;
6667;SDS011;3370;47.712;9.082;2023-05-08T14:22:38;11.93;;;4.37;;
6667;SDS011;3370;47.712;9.082;2023-05-08T14:25:04;4.63;;;4.17;;
6667;SDS011;3370;47.712;9.082;2023-05-08T14:27:31;4.57;;;4.17;;
6667;SDS011;3370;47.712;9.082;2023-05-08T14:29:57;11.20;;;3.87;;
6667;SDS011;3370;47.712;9.082;2023-05-08T14:32:23;3.60;;;3.40;;
6667;SDS011;3370;47.712;9.082;2023-05-08T14:34:48;2.70;;;2.40;;
6667;SDS011;3370;47.712;9.082;2023-05-08T14:37:14;8.17;;;2.80;;
6667;SDS011;3370;47.712;9.082;2023-05-08T14:39:41;3.27;;;2.97;;
6667;SDS011;3370;47.712;9.082;2023-05-08T14:42:07;2.70;;;2.30;;
6667;SDS011;3370;47.712;9.082;2023-05-08T14:44:33;2.33;;;2.10;;
6667;SDS011;3370;47.712;9.082;2023-05-08T14:46:59;2.13;;;1.90;;
6667;SDS011;3370;47.712;9.082;2023-05-08T14:49:25;2.00;;;1.73;;
6667;SDS011;3370;47.712;9.082;2023-05-08T14:51:50;7.73;;;2.13;;
6667;SDS011;3370;47.712;9.082;2023-05-08T14:54:16;2.80;;;1.90;;
6667;SDS011;3370;47.712;9.082;2023-05-08T14:56:42;2.23;;;2.03;;
6667;SDS011;3370;47.712;9.082;2023-05-08T14:59:08;2.57;;;1.77;;
6667;SDS011;3370;47.712;9.082;2023-05-08T15:01:33;3.90;;;1.50;;
6667;SDS011;3370;47.712;9.082;2023-05-08T15:03:59;2.33;;;2.10;;
6667;SDS011;3370;47.712;9.082;2023-05-08T15:06:25;5.37;;;1.93;;
6667;SDS011;3370;47.712;9.082;2023-05-08T15:08:52;2.07;;;1.70;;
6667;SDS011;3370;47.712;9.082;2023-05-08T15:11:18;2.23;;;2.00;;
6667;SDS011;3370;47.712;9.082;2023-05-08T15:13:46;2.80;;;1.70;;
6667;SDS011;3370;47.712;9.082;2023-05-08T15:16:12;4.17;;;2.27;;
6667;SDS011;3370;47.712;9.082;2023-05-08T15:18:38;4.53;;;1.73;;
6667;SDS011;3370;47.712;9.082;2023-05-08T15:21:04;2.53;;;2.20;;
6667;SDS011;3370;47.712;9.082;2023-05-08T15:23:30;2.23;;;1.80;;
6667;SDS011;3370;47.712;9.082;2023-05-08T15:25:55;3.90;;;1.87;;
6667;SDS011;3370;47.712;9.082;2023-05-08T15:28:21;1.93;;;1.60;;
6667;SDS011;3370;47.712;9.082;2023-05-08T15:30:47;2.70;;;1.87;;
6667;SDS011;3370;47.712;9.082;2023-05-08T15:33:13;1.90;;;1.80;;
6667;SDS011;3370;47.712;9.082;2023-05-08T15:35:38;2.00;;;1.90;;
6667;SDS011;3370;47.712;9.082;2023-05-08T15:38:05;4.90;;;2.37;;
6667;SDS011;3370;47.712;9.082;2023-05-08T15:40:32;2.33;;;2.13;;
6667;SDS011;3370;47.712;9.082;2023-05-08T15:42:58;2.37;;;2.17;;
6667;SDS011;3370;47.712;9.082;2023-05-08T15:45:24;1.60;;;1.50;;
6667;SDS011;3370;47.712;9.082;2023-05-08T15:47:50;2.33;;;1.60;;
6667;SDS011;3370;47.712;9.082;2023-05-08T15:50:16;1.33;;;1.33;;
6667;SDS011;3370;47.712;9.082;2023-05-08T15:52:41;3.90;;;2.23;;
6667;SDS011;3370;47.712;9.082;2023-05-08T15:55:07;1.80;;;1.70;;
6667;SDS011;3370;47.712;9.082;2023-05-08T15:57:33;2.63;;;1.53;;
6667;SDS011;3370;47.712;9.082;2023-05-08T15:59:59;1.53;;;1.43;;
6667;SDS011;3370;47.712;9.082;2023-05-08T16:02:25;1.50;;;1.27;;
6667;SDS011;3370;47.712;9.082;2023-05-08T16:04:51;2.50;;;1.50;;
6667;SDS011;3370;47.712;9.082;2023-05-08T16:07:16;1.40;;;1.30;;